Time;durP1;ratioP1;P1;durP2;ratioP2;P2;SDS_P1;SDS_P2;PMS_P1;PMS_P2;Temp;Humidity;BMP_temperature;BMP_pressure;BME280_temperature;BME280_humidity;BME280_pressure;Samples;Min_cycle;Max_cycle;Signal;HPM_P1;HPM_P2
2023/04/06 00:02:05;;;;;;;0.30;0.30;;;-1.30;99.90;;;;;;5052372;28;20029;-76
2023/04/06 00:04:33;;;;;;;0.30;0.30;;;-1.40;99.90;;;;;;5055029;28;20013;-76
2023/04/06 00:06:58;;;;;;;0.20;0.20;;;-1.40;99.90;;;;;;5079138;22;20052;-73
2023/04/06 00:09:24;;;;;;;0.20;0.20;;;-1.40;99.90;;;;;;5057364;28;20390;-73
2023/04/06 00:11:49;;;;;;;0.20;0.20;;;-1.40;99.90;;;;;;5057132;28;20056;-73
2023/04/06 00:14:17;;;;;;;0.28;0.28;;;-1.40;99.90;;;;;;5038796;28;20024;-73
2023/04/06 00:16:42;;;;;;;0.20;0.20;;;-1.40;99.90;;;;;;5045648;23;20040;-73
2023/04/06 00:19:08;;;;;;;0.25;0.25;;;-1.40;99.90;;;;;;5070054;28;20017;-73
2023/04/06 00:21:33;;;;;;;0.30;0.30;;;-1.30;99.90;;;;;;5076330;28;20031;-73
2023/04/06 00:23:59;;;;;;;0.20;0.20;;;-1.40;99.90;;;;;;5059157;28;20024;-73
2023/04/06 00:26:24;;;;;;;0.22;0.22;;;-1.40;99.90;;;;;;5076422;28;20012;-73
2023/04/06 00:28:52;;;;;;;0.30;0.30;;;-1.50;99.90;;;;;;5071187;28;20025;-73
2023/04/06 00:31:17;;;;;;;0.20;0.20;;;-1.60;99.90;;;;;;5056918;28;20016;-73
2023/04/06 00:33:43;;;;;;;0.30;0.30;;;-1.60;99.90;;;;;;5069265;28;20477;-73
2023/04/06 00:36:08;;;;;;;0.20;0.20;;;-1.70;99.90;;;;;;5076588;28;20385;-73
2023/04/06 00:38:34;;;;;;;0.30;0.30;;;-1.70;99.90;;;;;;5075626;28;20070;-73
2023/04/06 00:41:00;;;;;;;0.20;0.20;;;-1.80;99.90;;;;;;5058464;28;20024;-73
2023/04/06 00:43:26;;;;;;;0.20;0.20;;;-1.90;99.90;;;;;;5076240;28;20060;-73
2023/04/06 00:45:51;;;;;;;0.20;0.20;;;-2.00;99.90;;;;;;5076092;28;20029;-73
2023/04/06 00:48:17;;;;;;;0.30;0.30;;;-2.00;99.90;;;;;;5075974;28;20033;-73
2023/04/06 00:50:43;;;;;;;0.35;0.35;;;-2.10;99.90;;;;;;5076142;28;20028;-73
2023/04/06 00:53:08;;;;;;;0.20;0.20;;;-2.10;99.90;;;;;;5076137;28;20021;-73
2023/04/06 00:55:35;;;;;;;0.30;0.30;;;-2.10;99.90;;;;;;5076402;28;20039;-73
2023/04/06 00:58:01;;;;;;;0.20;0.20;;;-2.10;99.90;;;;;;5076242;28;20025;-73
2023/04/06 01:00:27;;;;;;;0.22;0.22;;;-2.20;99.90;;;;;;5075793;28;20032;-73
2023/04/06 01:02:53;;;;;;;0.30;0.30;;;-2.10;99.90;;;;;;5057964;28;20393;-73
2023/04/06 01:05:19;;;;;;;0.20;0.20;;;-2.10;99.90;;;;;;5076115;28;20048;-73
2023/04/06 01:07:45;;;;;;;0.20;0.20;;;-2.10;99.90;;;;;;5076153;28;20576;-73
2023/04/06 01:10:11;;;;;;;0.20;0.20;;;-2.10;99.90;;;;;;5075852;28;20029;-73
2023/04/06 01:12:38;;;;;;;0.20;0.20;;;-2.10;99.90;;;;;;5075210;28;20082;-73
2023/04/06 01:15:05;;;;;;;0.20;0.20;;;-2.00;99.90;;;;;;5064475;28;20036;-73
2023/04/06 01:17:31;;;;;;;0.25;0.25;;;-2.00;99.90;;;;;;5037860;28;20063;-73
2023/04/06 01:19:56;;;;;;;0.20;0.20;;;-2.00;99.90;;;;;;5055484;28;20064;-73
2023/04/06 01:22:24;;;;;;;0.20;0.20;;;-2.00;99.90;;;;;;5055472;28;20056;-73
2023/04/06 01:24:49;;;;;;;0.30;0.30;;;-1.90;99.90;;;;;;5037234;28;20032;-73
2023/04/06 01:27:15;;;;;;;0.20;0.20;;;-2.00;99.90;;;;;;5055730;28;20025;-73
2023/04/06 01:29:41;;;;;;;0.30;0.30;;;-2.00;99.90;;;;;;5055652;28;20021;-73
2023/04/06 01:32:07;;;;;;;0.20;0.20;;;-2.00;99.90;;;;;;5061472;28;20094;-73
2023/04/06 01:34:33;;;;;;;0.30;0.30;;;-2.10;99.90;;;;;;5054879;28;20037;-73
2023/04/06 01:36:58;;;;;;;0.20;0.20;;;-2.10;99.90;;;;;;5056675;28;20027;-73
2023/04/06 01:39:24;;;;;;;0.20;0.20;;;-2.10;99.90;;;;;;5055508;28;20028;-73
2023/04/06 01:41:49;;;;;;;0.20;0.20;;;-2.10;99.90;;;;;;5055387;28;20039;-73
2023/04/06 01:44:17;;;;;;;0.17;0.17;;;-2.10;99.90;;;;;;5053410;28;20028;-73
2023/04/06 01:46:43;;;;;;;0.20;0.20;;;-2.10;99.90;;;;;;5054729;28;20485;-73
2023/04/06 01:49:08;;;;;;;0.30;0.30;;;-2.10;99.90;;;;;;5055813;28;20025;-73
2023/04/06 01:51:34;;;;;;;0.20;0.20;;;-2.20;99.90;;;;;;5055605;28;20029;-73
2023/04/06 01:54:00;;;;;;;0.20;0.20;;;-2.20;99.90;;;;;;5037314;28;20055;-73
2023/04/06 01:56:26;;;;;;;0.22;0.22;;;-2.30;99.90;;;;;;5054668;28;20025;-73
2023/04/06 01:58:51;;;;;;;0.20;0.20;;;-2.30;99.90;;;;;;5055436;28;20438;-73
2023/04/06 02:01:17;;;;;;;0.30;0.30;;;-2.30;99.90;;;;;;5055475;28;20044;-73
2023/04/06 02:03:43;;;;;;;0.20;0.20;;;-2.40;99.90;;;;;;5066775;28;20047;-73
2023/04/06 02:06:08;;;;;;;0.28;0.28;;;-2.40;99.90;;;;;;5074924;28;20039;-73
2023/04/06 02:08:34;;;;;;;0.30;0.30;;;-2.30;99.90;;;;;;5075055;28;20024;-72
2023/04/06 02:10:59;;;;;;;0.28;0.28;;;-2.30;99.90;;;;;;5075014;28;20020;-73
2023/04/06 02:13:25;;;;;;;0.20;0.20;;;-2.30;99.90;;;;;;5075461;28;20032;-73
2023/04/06 02:15:50;;;;;;;0.32;0.32;;;-2.30;99.90;;;;;;5075170;28;20485;-72
2023/04/06 02:18:17;;;;;;;0.17;0.17;;;-2.30;99.90;;;;;;5074275;28;20028;-73
2023/04/06 02:20:44;;;;;;;0.40;0.40;;;-2.30;99.90;;;;;;5037104;28;20112;-73
2023/04/06 02:23:10;;;;;;;0.30;0.30;;;-2.30;99.90;;;;;;5054633;28;20028;-73
2023/04/06 02:25:35;;;;;;;0.22;0.22;;;-2.30;99.90;;;;;;5055117;28;20041;-73
2023/04/06 02:28:01;;;;;;;0.30;0.30;;;-2.30;99.90;;;;;;5054462;28;20029;-73
2023/04/06 02:30:27;;;;;;;0.28;0.28;;;-2.30;99.90;;;;;;5054492;28;20057;-73
2023/04/06 02:32:52;;;;;;;0.30;0.30;;;-2.30;99.90;;;;;;5036752;28;20044;-74
2023/04/06 02:35:18;;;;;;;0.20;0.20;;;-2.40;99.90;;;;;;5055013;28;20051;-73
2023/04/06 02:37:43;;;;;;;0.30;0.30;;;-2.40;99.90;;;;;;5054572;28;20036;-73
2023/04/06 02:40:10;;;;;;;0.20;0.20;;;-2.40;99.90;;;;;;5054690;28;20049;-73
2023/04/06 02:42:35;;;;;;;0.30;0.30;;;-2.50;99.90;;;;;;5039268;28;20035;-73
2023/04/06 02:45:01;;;;;;;0.22;0.22;;;-2.40;99.90;;;;;;5065378;28;20108;-73
2023/04/06 02:47:26;;;;;;;0.20;0.20;;;-2.40;99.90;;;;;;5054615;28;20029;-73
2023/04/06 02:49:55;;;;;;;0.20;0.20;;;-2.40;99.90;;;;;;5063484;28;20105;-73
2023/04/06 02:52:20;;;;;;;0.13;0.13;;;-2.40;99.90;;;;;;5055629;28;20031;-73
2023/04/06 02:54:46;;;;;;;0.30;0.30;;;-2.20;99.90;;;;;;5074883;28;20501;-73
2023/04/06 02:57:12;;;;;;;0.22;0.22;;;-2.20;99.90;;;;;;5077203;28;20020;-73
2023/04/06 02:59:37;;;;;;;0.30;0.30;;;-2.20;99.90;;;;;;5078282;28;20100;-73
2023/04/06 03:02:03;;;;;;;0.30;0.30;;;-2.20;99.90;;;;;;5060220;28;20021;-72
2023/04/06 03:04:29;;;;;;;0.30;0.30;;;-2.10;99.90;;;;;;5077949;28;20447;-73
2023/04/06 03:06:55;;;;;;;0.30;0.30;;;-2.10;99.90;;;;;;5077801;28;20025;-73
2023/04/06 03:09:21;;;;;;;0.30;0.30;;;-2.00;99.90;;;;;;5078127;28;20073;-74
2023/04/06 03:11:49;;;;;;;0.25;0.25;;;-2.00;99.90;;;;;;5077949;28;20453;-73
2023/04/06 03:14:17;;;;;;;0.20;0.20;;;-2.00;99.90;;;;;;5077727;28;20025;-73
2023/04/06 03:16:42;;;;;;;0.20;0.20;;;-2.00;99.90;;;;;;5077887;28;20394;-73
2023/04/06 03:19:08;;;;;;;0.30;0.30;;;-1.90;99.90;;;;;;5078095;28;20051;-73
2023/04/06 03:21:33;;;;;;;0.22;0.22;;;-2.00;99.90;;;;;;5059696;28;20021;-73
2023/04/06 03:23:59;;;;;;;0.22;0.22;;;-2.10;99.90;;;;;;5077868;28;20078;-73
2023/04/06 03:26:24;;;;;;;0.20;0.20;;;-2.30;99.90;;;;;;5059784;28;20496;-73
2023/04/06 03:28:50;;;;;;;0.30;0.30;;;-2.30;99.90;;;;;;5077621;28;20086;-73
2023/04/06 03:31:15;;;;;;;0.20;0.20;;;-2.40;99.90;;;;;;5077223;28;20036;-73
2023/04/06 03:33:41;;;;;;;0.20;0.20;;;-2.40;99.90;;;;;;5078055;28;20048;-73
2023/04/06 03:36:07;;;;;;;0.20;0.20;;;-2.40;99.90;;;;;;5077587;28;20104;-73
2023/04/06 03:38:32;;;;;;;0.20;0.20;;;-2.30;99.90;;;;;;5077657;28;20439;-73
2023/04/06 03:40:58;;;;;;;0.20;0.20;;;-2.20;99.90;;;;;;5077652;28;20036;-73
2023/04/06 03:43:23;;;;;;;0.20;0.20;;;-2.10;99.90;;;;;;5059679;28;20025;-73
2023/04/06 03:45:49;;;;;;;0.20;0.20;;;-2.00;99.90;;;;;;5077063;28;20521;-73
2023/04/06 03:48:15;;;;;;;0.20;0.20;;;-2.00;99.90;;;;;;5059175;28;20082;-73
2023/04/06 03:50:40;;;;;;;0.20;0.20;;;-2.00;99.90;;;;;;5077086;28;20099;-73
2023/04/06 03:53:06;;;;;;;0.20;0.20;;;-2.10;99.90;;;;;;5077377;28;20025;-73
2023/04/06 03:55:31;;;;;;;0.20;0.20;;;-2.20;99.90;;;;;;5077093;28;20025;-73
2023/04/06 03:57:57;;;;;;;0.20;0.20;;;-2.20;99.90;;;;;;5076952;28;20047;-73
2023/04/06 04:00:23;;;;;;;0.20;0.20;;;-2.20;99.90;;;;;;5076643;28;20024;-73
2023/04/06 04:02:49;;;;;;;0.10;0.10;;;-2.10;99.90;;;;;;5077525;28;20020;-73
2023/04/06 04:05:15;;;;;;;0.20;0.20;;;-2.00;99.90;;;;;;5059346;28;20035;-73
2023/04/06 04:07:40;;;;;;;0.20;0.20;;;-2.00;99.90;;;;;;5076169;28;20105;-73
2023/04/06 04:10:06;;;;;;;0.20;0.20;;;-2.00;99.90;;;;;;5077021;28;20029;-73
2023/04/06 04:12:32;;;;;;;0.30;0.30;;;-1.90;99.90;;;;;;5076620;28;20448;-73
2023/04/06 04:14:57;;;;;;;0.20;0.20;;;-1.90;99.90;;;;;;5075468;28;20028;-73
2023/04/06 04:17:24;;;;;;;0.30;0.30;;;-2.00;99.90;;;;;;5056708;28;20060;-73
2023/04/06 04:19:50;;;;;;;0.20;0.20;;;-2.00;99.90;;;;;;5038449;28;20494;-73
2023/04/06 04:22:15;;;;;;;0.20;0.20;;;-2.00;99.90;;;;;;5057015;28;20089;-73
2023/04/06 04:24:41;;;;;;;0.20;0.20;;;-2.10;99.90;;;;;;5056539;28;20453;-73
2023/04/06 04:27:12;;;;;;;0.20;0.20;;;-2.20;99.90;;;;;;5056225;28;20118;-73
2023/04/06 04:29:37;;;;;;;0.20;0.20;;;-2.20;99.90;;;;;;5056717;28;20056;-73
2023/04/06 04:32:03;;;;;;;0.20;0.20;;;-2.30;99.90;;;;;;5041281;28;20021;-73
2023/04/06 04:34:28;;;;;;;0.20;0.20;;;-2.30;99.90;;;;;;5056447;28;20025;-73
2023/04/06 04:36:54;;;;;;;0.30;0.30;;;-2.40;99.90;;;;;;5056755;28;20047;-73
2023/04/06 04:39:22;;;;;;;0.30;0.30;;;-2.40;99.90;;;;;;5050114;28;20035;-73
2023/04/06 04:41:48;;;;;;;0.20;0.20;;;-2.40;99.90;;;;;;5076429;28;20036;-73
2023/04/06 04:44:13;;;;;;;0.20;0.20;;;-2.50;99.90;;;;;;5058434;28;20386;-73
2023/04/06 04:46:39;;;;;;;0.20;0.20;;;-2.40;99.90;;;;;;5067596;28;20482;-73
2023/04/06 04:49:04;;;;;;;0.30;0.30;;;-2.40;99.90;;;;;;5056490;28;20033;-73
2023/04/06 04:51:31;;;;;;;0.30;0.30;;;-2.50;99.90;;;;;;5055904;28;20390;-73
2023/04/06 04:53:57;;;;;;;0.20;0.20;;;-2.40;99.90;;;;;;5056055;28;20074;-73
2023/04/06 04:56:22;;;;;;;0.20;0.20;;;-2.50;99.90;;;;;;5056079;28;20514;-73
2023/04/06 04:58:48;;;;;;;0.20;0.20;;;-2.50;99.90;;;;;;5056183;28;20036;-73
2023/04/06 05:01:16;;;;;;;0.30;0.30;;;-2.50;99.90;;;;;;5056039;28;20029;-73
2023/04/06 05:03:42;;;;;;;0.20;0.20;;;-2.50;99.90;;;;;;5055879;28;20035;-73
2023/04/06 05:06:07;;;;;;;0.30;0.30;;;-2.50;99.90;;;;;;5072119;28;20128;-73
2023/04/06 05:08:33;;;;;;;0.20;0.20;;;-2.50;99.90;;;;;;5058134;28;20074;-73
2023/04/06 05:10:59;;;;;;;0.30;0.30;;;-2.50;99.90;;;;;;5076394;28;20456;-73
2023/04/06 05:13:24;;;;;;;0.20;0.20;;;-2.50;99.90;;;;;;5075487;28;20048;-73
2023/04/06 05:15:50;;;;;;;0.20;0.20;;;-2.50;99.90;;;;;;5075232;28;20047;-73
2023/04/06 05:18:16;;;;;;;0.22;0.22;;;-2.50;99.90;;;;;;5075261;28;20041;-73
2023/04/06 05:20:42;;;;;;;0.30;0.30;;;-2.50;99.90;;;;;;5075788;28;20029;-73
2023/04/06 05:23:08;;;;;;;0.20;0.20;;;-2.40;99.90;;;;;;5075385;28;20112;-73
2023/04/06 05:25:33;;;;;;;0.30;0.30;;;-2.40;99.90;;;;;;5075059;28;20102;-73
2023/04/06 05:27:59;;;;;;;0.25;0.25;;;-2.40;99.90;;;;;;5075327;28;20032;-73
2023/04/06 05:30:25;;;;;;;0.20;0.20;;;-2.30;99.90;;;;;;5075020;28;20370;-73
2023/04/06 05:32:51;;;;;;;0.20;0.20;;;-2.30;99.90;;;;;;5057743;28;20021;-73
2023/04/06 05:35:17;;;;;;;0.20;0.20;;;-2.20;99.90;;;;;;5075099;28;20020;-73
2023/04/06 05:37:43;;;;;;;0.20;0.20;;;-2.10;99.90;;;;;;5075066;28;20063;-73
2023/04/06 05:40:09;;;;;;;0.30;0.30;;;-2.10;99.90;;;;;;5075272;28;20059;-73
2023/04/06 05:42:38;;;;;;;0.22;0.22;;;-2.00;99.90;;;;;;5075775;28;20050;-73
2023/04/06 05:45:05;;;;;;;0.22;0.22;;;-1.90;99.90;;;;;;5075683;28;20540;-73
2023/04/06 05:47:31;;;;;;;0.30;0.30;;;-1.80;99.90;;;;;;5067708;28;20060;-73
2023/04/06 05:49:56;;;;;;;0.30;0.30;;;-1.70;99.90;;;;;;5036835;28;20033;-74
2023/04/06 05:52:22;;;;;;;0.20;0.20;;;-1.60;99.90;;;;;;5055287;28;20025;-73
2023/04/06 05:54:47;;;;;;;0.20;0.20;;;-1.50;99.90;;;;;;5055387;28;20021;-73
2023/04/06 05:57:13;;;;;;;0.25;0.25;;;-1.40;99.90;;;;;;5055243;28;20032;-73
2023/04/06 05:59:38;;;;;;;0.20;0.20;;;-1.30;99.90;;;;;;5036352;28;20548;-73
2023/04/06 06:02:04;;;;;;;0.20;0.20;;;-1.20;99.90;;;;;;5037423;28;20090;-73
2023/04/06 06:04:30;;;;;;;0.20;0.20;;;-1.00;99.90;;;;;;5040730;28;20025;-74
2023/04/06 06:06:56;;;;;;;0.20;0.20;;;-0.80;99.90;;;;;;5056787;28;20088;-73
2023/04/06 06:09:21;;;;;;;0.20;0.20;;;-0.70;99.90;;;;;;5056834;28;20021;-74
2023/04/06 06:11:48;;;;;;;0.20;0.20;;;-0.50;99.90;;;;;;5057128;28;20524;-74
2023/04/06 06:14:13;;;;;;;0.20;0.20;;;-0.40;99.90;;;;;;5074972;28;20027;-73
2023/04/06 06:16:39;;;;;;;0.10;0.10;;;-0.20;99.90;;;;;;5063788;28;20108;-74
2023/04/06 06:19:04;;;;;;;0.30;0.30;;;-0.10;99.90;;;;;;5074476;28;20075;-74
2023/04/06 06:21:31;;;;;;;0.20;0.20;;;0.10;99.90;;;;;;5075086;28;20025;-74
2023/04/06 06:23:56;;;;;;;0.20;0.20;;;0.30;99.90;;;;;;5057549;28;20472;-76
2023/04/06 06:26:22;;;;;;;0.25;0.25;;;0.50;99.90;;;;;;5110292;22;20032;-76
2023/04/06 06:28:48;;;;;;;0.20;0.20;;;0.60;99.90;;;;;;5037886;28;20071;-76
2023/04/06 06:31:13;;;;;;;0.20;0.20;;;0.80;99.90;;;;;;5057677;28;20033;-76
2023/04/06 06:33:39;;;;;;;0.20;0.20;;;0.90;99.90;;;;;;5059315;28;20020;-77
2023/04/06 06:36:05;;;;;;;0.20;0.20;;;1.10;99.90;;;;;;5059320;28;20033;-76
2023/04/06 06:38:31;;;;;;;0.20;0.20;;;1.30;99.90;;;;;;5059159;28;20017;-75
2023/04/06 06:40:56;;;;;;;0.20;0.20;;;1.50;99.90;;;;;;5058507;28;20025;-76
2023/04/06 06:43:22;;;;;;;0.22;0.22;;;1.80;99.90;;;;;;5041127;28;20441;-76
2023/04/06 06:45:47;;;;;;;0.17;0.17;;;2.00;99.90;;;;;;5058697;28;20028;-76
2023/04/06 06:48:13;;;;;;;0.20;0.20;;;2.20;99.90;;;;;;5058882;28;20027;-76
2023/04/06 06:50:38;;;;;;;0.20;0.20;;;2.30;99.90;;;;;;5058912;28;20021;-75
2023/04/06 06:53:04;;;;;;;0.20;0.20;;;2.50;99.90;;;;;;5059066;28;20025;-77
2023/04/06 06:55:30;;;;;;;0.20;0.20;;;2.70;99.90;;;;;;5046193;28;20096;-77
2023/04/06 06:57:55;;;;;;;0.20;0.20;;;2.90;99.90;;;;;;5060353;28;20028;-77
2023/04/06 07:00:21;;;;;;;0.20;0.20;;;3.10;99.90;;;;;;5060843;28;20021;-77
2023/04/06 07:02:48;;;;;;;0.20;0.20;;;3.20;99.90;;;;;;5059435;28;20035;-76
2023/04/06 07:05:13;;;;;;;0.20;0.20;;;3.40;99.90;;;;;;5058344;28;20032;-76
2023/04/06 07:07:39;;;;;;;0.20;0.20;;;3.60;99.90;;;;;;5057761;28;20037;-75
2023/04/06 07:10:06;;;;;;;0.20;0.20;;;3.70;99.90;;;;;;5037401;28;20033;-76
2023/04/06 07:12:32;;;;;;;0.20;0.20;;;3.80;99.90;;;;;;5038214;28;20045;-75
2023/04/06 07:14:57;;;;;;;0.20;0.20;;;4.00;99.90;;;;;;5037838;28;20029;-76
2023/04/06 07:17:23;;;;;;;0.20;0.20;;;4.20;99.90;;;;;;5036559;28;20037;-76
2023/04/06 07:19:48;;;;;;;0.15;0.15;;;4.40;99.90;;;;;;5046984;28;20056;-76
2023/04/06 07:22:14;;;;;;;0.13;0.13;;;4.60;99.90;;;;;;5058435;28;20056;-75
2023/04/06 07:24:39;;;;;;;0.10;0.10;;;4.70;99.90;;;;;;5057448;28;20060;-76
2023/04/06 07:27:05;;;;;;;0.30;0.30;;;4.70;99.90;;;;;;5057608;28;20033;-76
2023/04/06 07:29:31;;;;;;;0.13;0.13;;;5.00;99.90;;;;;;5039691;28;20021;-76
2023/04/06 07:31:57;;;;;;;0.20;0.20;;;5.30;99.90;;;;;;5058101;28;20390;-76
2023/04/06 07:34:22;;;;;;;0.10;0.10;;;5.50;99.90;;;;;;5058216;28;20390;-76
2023/04/06 07:36:48;;;;;;;0.20;0.20;;;5.60;99.90;;;;;;5074092;22;20048;-76
2023/04/06 07:39:14;;;;;;;0.20;0.20;;;5.80;99.90;;;;;;5057426;28;20025;-76
2023/04/06 07:41:41;;;;;;;0.13;0.13;;;6.00;99.90;;;;;;5057180;28;20043;-75
2023/04/06 07:44:06;;;;;;;0.20;0.20;;;6.20;99.90;;;;;;5057731;28;20462;-75
2023/04/06 07:46:32;;;;;;;0.20;0.20;;;6.40;99.90;;;;;;5057122;28;20025;-76
2023/04/06 07:48:59;;;;;;;0.20;0.20;;;6.70;99.90;;;;;;5056160;28;20086;-76
2023/04/06 07:51:26;;;;;;;0.20;0.20;;;6.90;99.90;;;;;;5057241;28;20096;-76
2023/04/06 07:53:51;;;;;;;0.20;0.20;;;6.90;99.90;;;;;;5039619;28;20032;-76
2023/04/06 07:56:17;;;;;;;0.10;0.10;;;7.10;99.90;;;;;;5057302;28;20104;-75
2023/04/06 07:58:43;;;;;;;0.17;0.17;;;7.40;99.90;;;;;;5056497;28;20429;-75
2023/04/06 08:01:08;;;;;;;0.20;0.20;;;7.50;99.90;;;;;;5057292;28;20025;-76
2023/04/06 08:03:35;;;;;;;0.20;0.20;;;7.60;99.90;;;;;;5057390;28;20029;-76
2023/04/06 08:06:01;;;;;;;0.20;0.20;;;7.90;99.90;;;;;;5057696;28;20032;-77
2023/04/06 08:08:27;;;;;;;0.20;0.20;;;7.80;99.90;;;;;;5056984;28;20033;-77
2023/04/06 08:10:53;;;;;;;0.20;0.20;;;8.00;99.90;;;;;;5038944;28;20017;-77
2023/04/06 08:13:19;;;;;;;0.20;0.20;;;8.10;99.90;;;;;;5039390;28;20044;-77
2023/04/06 08:15:44;;;;;;;0.20;0.20;;;8.20;99.90;;;;;;5039646;28;20043;-77
2023/04/06 08:18:14;;;;;;;0.20;0.20;;;8.40;99.90;;;;;;5057280;28;20669;-76
2023/04/06 08:20:40;;;;;;;0.20;0.20;;;8.50;99.90;;;;;;5056648;28;20479;-77
2023/04/06 08:23:06;;;;;;;0.20;0.20;;;8.60;99.90;;;;;;5038816;28;20060;-77
2023/04/06 08:25:34;;;;;;;0.20;0.20;;;8.90;99.90;;;;;;5057242;28;20059;-77
2023/04/06 08:27:59;;;;;;;0.20;0.20;;;9.00;99.90;;;;;;5056486;28;20029;-76
2023/04/06 08:30:25;;;;;;;0.20;0.20;;;9.00;99.90;;;;;;5056993;28;20028;-77
2023/04/06 08:32:51;;;;;;;0.20;0.20;;;8.90;99.90;;;;;;5038981;28;20024;-76
2023/04/06 08:35:16;;;;;;;0.20;0.20;;;9.10;99.90;;;;;;5039192;28;20482;-77
2023/04/06 08:37:42;;;;;;;0.20;0.20;;;9.30;99.90;;;;;;5057183;28;20367;-77
2023/04/06 08:40:08;;;;;;;0.28;0.28;;;9.40;99.90;;;;;;5054966;28;20108;-77
2023/04/06 08:42:39;;;;;;;0.30;0.30;;;9.50;99.90;;;;;;5037479;28;20214;-77
2023/04/06 08:45:16;;;;;;;0.20;0.20;;;9.70;99.90;;;;;;5036838;28;20547;-77
2023/04/06 08:47:42;;;;;;;0.17;0.17;;;9.90;99.90;;;;;;5036960;28;20036;-77
2023/04/06 08:50:08;;;;;;;0.17;0.17;;;10.00;99.90;;;;;;5049787;28;20096;-77
2023/04/06 08:52:34;;;;;;;0.17;0.17;;;10.20;99.90;;;;;;5057042;28;20049;-77
2023/04/06 08:55:00;;;;;;;0.20;0.20;;;10.20;99.90;;;;;;5055194;28;20021;-77
2023/04/06 08:57:26;;;;;;;0.20;0.20;;;10.40;99.90;;;;;;5038681;28;20494;-77
2023/04/06 08:59:53;;;;;;;0.10;0.10;;;10.50;99.90;;;;;;5056211;28;20040;-76
2023/04/06 09:02:20;;;;;;;0.20;0.20;;;10.60;99.90;;;;;;5056500;28;20029;-77
2023/04/06 09:04:51;;;;;;;0.20;0.20;;;10.70;99.90;;;;;;5038458;28;20032;-77
2023/04/06 09:07:17;;;;;;;0.20;0.20;;;10.40;99.90;;;;;;5035874;23;20053;-76
2023/04/06 09:09:52;;;;;;;0.20;0.20;;;10.50;99.90;;;;;;5036101;28;20044;-76
2023/04/06 09:12:28;;;;;;;0.20;0.20;;;10.70;99.90;;;;;;5035849;28;20479;-77
2023/04/06 09:14:55;;;;;;;0.20;0.20;;;10.90;99.90;;;;;;5052295;28;20036;-77
2023/04/06 09:17:23;;;;;;;0.20;0.20;;;10.90;99.90;;;;;;5055737;28;20021;-76
2023/04/06 09:19:49;;;;;;;0.15;0.15;;;10.80;99.90;;;;;;5038278;28;20490;-77
2023/04/06 09:22:15;;;;;;;0.20;0.20;;;10.80;99.90;;;;;;5056374;28;20172;-77
2023/04/06 09:24:49;;;;;;;0.20;0.20;;;10.90;99.90;;;;;;5037609;28;20067;-77
2023/04/06 09:27:16;;;;;;;0.20;0.20;;;11.20;99.90;;;;;;5015701;28;20058;-75
2023/04/06 09:29:42;;;;;;;0.20;0.20;;;11.30;99.90;;;;;;5016442;28;20502;-77
2023/04/06 09:32:16;;;;;;;0.10;0.10;;;11.40;99.90;;;;;;5040732;28;20032;-77
2023/04/06 09:34:42;;;;;;;0.20;0.20;;;11.60;99.90;;;;;;5037873;28;20017;-77
2023/04/06 09:37:17;;;;;;;0.20;0.20;;;11.60;99.90;;;;;;5055835;28;20032;-77
2023/04/06 09:39:44;;;;;;;0.20;0.20;;;11.70;99.90;;;;;;5056058;28;20081;-77
2023/04/06 09:42:10;;;;;;;0.20;0.20;;;11.80;99.90;;;;;;5055522;28;20112;-77
2023/04/06 09:44:35;;;;;;;0.20;0.20;;;12.10;99.90;;;;;;5054916;28;20492;-77
2023/04/06 09:47:05;;;;;;;0.20;0.20;;;12.00;99.90;;;;;;5037164;28;20033;-77
2023/04/06 09:49:32;;;;;;;0.20;0.20;;;12.10;99.90;;;;;;5055237;28;20079;-77
2023/04/06 09:52:00;;;;;;;0.20;0.20;;;12.10;99.90;;;;;;5055732;28;20024;-77
2023/04/06 09:54:29;;;;;;;0.10;0.10;;;12.20;99.90;;;;;;5037640;28;20057;-77
2023/04/06 09:56:58;;;;;;;0.20;0.20;;;12.40;99.90;;;;;;5054202;28;20166;-77
2023/04/06 09:59:50;;;;;;;0.20;0.20;;;12.20;99.90;;;;;;5037049;28;20021;-77
2023/04/06 10:02:39;;;;;;;0.20;0.20;;;12.00;99.90;;;;;;5055396;28;20414;-77
2023/04/06 10:05:54;;;;;;;0.20;0.20;;;11.90;99.90;;;;;;5049923;28;20026;-77
2023/04/06 10:08:24;;;;;;;0.20;0.20;;;12.20;99.90;;;;;;4993401;28;20041;-76
2023/04/06 10:10:51;;;;;;;0.20;0.20;;;12.50;99.90;;;;;;4994096;28;20026;-77
2023/04/06 10:13:18;;;;;;;0.20;0.20;;;12.80;99.90;;;;;;5018156;28;20044;-77
2023/04/06 10:15:44;;;;;;;0.20;0.20;;;12.60;99.90;;;;;;5036294;28;20101;-76
2023/04/06 10:18:10;;;;;;;0.20;0.20;;;12.70;99.90;;;;;;5009806;28;20102;-76
2023/04/06 10:20:47;;;;;;;0.20;0.20;;;13.00;99.90;;;;;;5023077;28;20123;-75
2023/04/06 10:23:19;;;;;;;0.20;0.20;;;12.80;99.90;;;;;;5027977;28;20025;-74
2023/04/06 10:25:57;;;;;;;0.20;0.20;;;12.90;99.90;;;;;;5043151;28;20060;-75
2023/04/06 10:28:25;;;;;;;0.20;0.20;;;12.70;99.90;;;;;;5031580;28;20044;-76
2023/04/06 10:30:57;;;;;;;0.20;0.20;;;12.90;99.90;;;;;;5004522;28;20022;-75
2023/04/06 10:33:22;;;;;;;0.10;0.10;;;13.20;99.90;;;;;;5031309;28;20128;-77
2023/04/06 10:35:48;;;;;;;0.20;0.20;;;13.20;99.90;;;;;;5031666;28;20025;-76
2023/04/06 10:38:14;;;;;;;0.20;0.20;;;13.00;99.90;;;;;;5024957;28;20123;-77
2023/04/06 10:40:42;;;;;;;0.20;0.20;;;12.50;99.90;;;;;;5026303;28;20041;-75
2023/04/06 10:43:13;;;;;;;0.20;0.20;;;12.50;99.90;;;;;;5023816;28;20045;-76
2023/04/06 10:45:40;;;;;;;0.20;0.20;;;12.50;99.90;;;;;;5008266;28;20029;-77
2023/04/06 10:48:16;;;;;;;0.20;0.20;;;12.90;99.90;;;;;;5042402;28;20028;-76
2023/04/06 10:50:47;;;;;;;0.10;0.10;;;13.10;99.90;;;;;;5033192;28;20032;-76
2023/04/06 10:53:22;;;;;;;0.10;0.10;;;13.50;99.90;;;;;;5011096;28;20093;-77
2023/04/06 10:55:50;;;;;;;0.20;0.20;;;13.70;99.90;;;;;;5028605;28;20051;-77
2023/04/06 10:58:16;;;;;;;0.20;0.20;;;13.60;99.90;;;;;;5035462;28;20098;-77
2023/04/06 11:00:51;;;;;;;0.20;0.20;;;13.70;99.90;;;;;;5005831;28;20109;-76
2023/04/06 11:03:17;;;;;;;0.20;0.20;;;14.10;99.90;;;;;;5036083;28;20029;-77
2023/04/06 11:05:45;;;;;;;0.20;0.20;;;13.80;99.90;;;;;;5053447;28;20068;-75
2023/04/06 11:08:21;;;;;;;0.10;0.10;;;13.90;99.90;;;;;;5019248;28;20045;-77
2023/04/06 11:10:47;;;;;;;0.13;0.13;;;14.10;99.90;;;;;;5042771;28;20562;-77
2023/04/06 11:13:12;;;;;;;0.10;0.10;;;14.00;99.90;;;;;;5046878;28;20029;-77
2023/04/06 11:15:38;;;;;;;0.20;0.20;;;14.20;99.90;;;;;;5031265;28;20094;-76
2023/04/06 11:18:04;;;;;;;0.20;0.20;;;14.20;99.90;;;;;;5044240;28;20032;-77
2023/04/06 11:20:30;;;;;;;0.17;0.17;;;14.10;99.90;;;;;;5057418;28;20017;-77
2023/04/06 11:22:56;;;;;;;0.10;0.10;;;14.20;99.90;;;;;;5058104;28;20021;-77
2023/04/06 11:25:21;;;;;;;0.20;0.20;;;14.20;99.90;;;;;;5057720;28;20028;-77
2023/04/06 11:27:48;;;;;;;0.20;0.20;;;14.30;99.90;;;;;;5108906;22;20033;-78
2023/04/06 11:30:14;;;;;;;0.20;0.20;;;14.30;99.90;;;;;;5057820;28;20053;-77
2023/04/06 11:32:42;;;;;;;0.20;0.20;;;14.20;99.90;;;;;;5058121;28;20017;-78
2023/04/06 11:35:11;;;;;;;0.20;0.20;;;13.90;99.90;;;;;;5058111;28;20021;-77
2023/04/06 11:37:37;;;;;;;0.20;0.20;;;13.90;99.90;;;;;;5057851;28;20088;-77
2023/04/06 11:40:03;;;;;;;0.20;0.20;;;14.10;99.90;;;;;;5056278;28;20037;-77
2023/04/06 11:42:29;;;;;;;0.15;0.15;;;14.30;99.90;;;;;;5057240;28;20104;-77
2023/04/06 11:44:57;;;;;;;0.13;0.13;;;14.50;99.90;;;;;;5058654;28;20190;-78
2023/04/06 11:47:30;;;;;;;0.20;0.20;;;14.50;99.90;;;;;;5059000;28;20056;-78
2023/04/06 11:49:59;;;;;;;0.20;0.20;;;15.00;99.90;;;;;;5058853;28;20434;-78
2023/04/06 11:52:29;;;;;;;0.10;0.10;;;15.00;99.90;;;;;;5058069;28;20551;-76
2023/04/06 11:54:57;;;;;;;0.20;0.20;;;14.80;98.80;;;;;;5056872;28;20037;-77
2023/04/06 11:57:25;;;;;;;0.15;0.15;;;15.00;99.90;;;;;;5058959;28;20053;-77
2023/04/06 11:59:52;;;;;;;0.20;0.20;;;15.20;98.40;;;;;;5041538;28;20029;-78
2023/04/06 12:02:18;;;;;;;0.20;0.20;;;15.50;99.90;;;;;;5059330;28;20085;-78
2023/04/06 12:04:44;;;;;;;0.15;0.15;;;15.80;97.90;;;;;;5058270;28;20025;-77
2023/04/06 12:07:10;;;;;;;0.10;0.10;;;15.90;96.10;;;;;;5040293;28;20033;-78
2023/04/06 12:09:36;;;;;;;0.20;0.20;;;15.90;98.70;;;;;;5040132;28;20163;-78
2023/04/06 12:12:02;;;;;;;0.20;0.20;;;16.10;93.40;;;;;;5040745;28;20585;-78
2023/04/06 12:14:30;;;;;;;0.10;0.10;;;16.50;96.10;;;;;;5058714;28;20025;-78
2023/04/06 12:16:57;;;;;;;0.20;0.20;;;16.80;97.30;;;;;;5057757;28;20168;-78
2023/04/06 12:19:25;;;;;;;0.20;0.20;;;16.90;95.70;;;;;;5040061;28;20029;-78
2023/04/06 12:21:57;;;;;;;0.17;0.17;;;17.30;95.40;;;;;;5058117;28;20025;-78
2023/04/06 12:24:23;;;;;;;0.10;0.10;;;17.60;93.20;;;;;;5058501;28;20469;-78
2023/04/06 12:26:48;;;;;;;0.17;0.17;;;17.70;94.70;;;;;;5057424;28;20036;-78
2023/04/06 12:29:14;;;;;;;0.20;0.20;;;18.20;93.40;;;;;;5039675;28;20021;-78
2023/04/06 12:31:40;;;;;;;0.10;0.10;;;18.00;91.30;;;;;;5039641;28;20028;-78
2023/04/06 12:34:07;;;;;;;0.10;0.10;;;18.00;90.60;;;;;;5057282;28;20023;-78
2023/04/06 12:36:33;;;;;;;0.20;0.20;;;18.10;90.70;;;;;;5130504;22;20023;-78
2023/04/06 12:39:00;;;;;;;0.10;0.10;;;17.80;91.40;;;;;;5057518;28;20037;-78
2023/04/06 12:41:28;;;;;;;0.10;0.10;;;17.60;90.30;;;;;;5057490;28;20017;-78
2023/04/06 12:43:53;;;;;;;0.10;0.10;;;17.90;90.10;;;;;;5039486;28;20116;-78
2023/04/06 12:46:19;;;;;;;0.10;0.10;;;18.60;91.10;;;;;;5057484;28;20056;-78